createdAt,value
2023-04-03T00:01:09.494Z,99.90
2023-04-03T00:03:37.850Z,99.90
2023-04-03T00:06:07.660Z,99.90
2023-04-03T00:08:35.536Z,99.90
2023-04-03T00:11:05.466Z,99.90
2023-04-03T00:13:33.678Z,99.90
2023-04-03T00:16:01.871Z,99.90
2023-04-03T00:18:29.847Z,99.90
2023-04-03T00:20:57.638Z,99.90
2023-04-03T00:23:25.456Z,99.90
2023-04-03T00:25:53.584Z,99.90
2023-04-03T00:28:22.847Z,99.90
2023-04-03T00:30:51.240Z,99.90
2023-04-03T00:35:50.587Z,99.90
2023-04-03T00:38:19.033Z,99.90
2023-04-03T00:40:49.080Z,99.90
2023-04-03T00:43:18.992Z,99.90
2023-04-03T00:45:50.057Z,99.90
2023-04-03T00:48:21.869Z,99.90
2023-04-03T00:50:50.688Z,99.90
2023-04-03T00:53:22.979Z,99.90
2023-04-03T00:55:52.653Z,99.90
2023-04-03T00:58:23.624Z,99.90
2023-04-03T01:00:58.681Z,99.90
2023-04-03T01:03:26.793Z,99.90
2023-04-03T01:05:54.739Z,99.90
2023-04-03T01:08:22.643Z,99.90
2023-04-03T01:10:51.014Z,99.90
2023-04-03T01:13:26.467Z,99.90
2023-04-03T01:15:56.441Z,99.90
2023-04-03T01:18:26.127Z,99.90
2023-04-03T01:21:30.020Z,99.90
2023-04-03T01:24:23.609Z,99.90
2023-04-03T01:26:51.449Z,99.90
2023-04-03T01:29:20.250Z,99.90
2023-04-03T01:31:57.362Z,99.90
2023-04-03T01:34:25.771Z,99.90
2023-04-03T01:36:54.085Z,99.90
2023-04-03T01:39:22.063Z,99.90
2023-04-03T01:41:49.995Z,99.90
2023-04-03T01:44:17.893Z,99.90
2023-04-03T01:46:45.660Z,99.90
2023-04-03T01:49:14.819Z,99.90
2023-04-03T01:51:42.628Z,99.90
2023-04-03T01:54:10.470Z,99.90
2023-04-03T01:56:39.919Z,99.90
2023-04-03T01:59:07.704Z,99.90
2023-04-03T02:01:35.510Z,99.90
2023-04-03T02:04:03.372Z,99.90
2023-04-03T02:06:32.548Z,99.90
2023-04-03T02:09:00.332Z,99.90
2023-04-03T02:11:28.156Z,99.90
2023-04-03T02:13:55.986Z,99.90
2023-04-03T02:16:23.867Z,99.90
2023-04-03T02:18:51.932Z,99.90
2023-04-03T02:21:19.782Z,99.90
2023-04-03T02:23:48.995Z,99.90
2023-04-03T02:26:18.102Z,99.90
2023-04-03T02:28:46.003Z,99.90
2023-04-03T02:31:13.911Z,99.90
2023-04-03T02:33:42.100Z,99.90
2023-04-03T02:36:10.658Z,99.90
2023-04-03T02:38:39.020Z,99.90
2023-04-03T02:41:09.930Z,99.90
2023-04-03T02:43:37.741Z,99.90
2023-04-03T02:46:06.363Z,99.90
2023-04-03T02:48:36.188Z,99.90
2023-04-03T02:51:04.175Z,99.90
2023-04-03T02:53:31.987Z,99.90
2023-04-03T02:55:59.789Z,99.90
2023-04-03T02:58:28.910Z,99.90
2023-04-03T03:00:56.684Z,99.90
2023-04-03T03:03:24.679Z,99.90
2023-04-03T03:05:52.462Z,99.90
2023-04-03T03:08:21.159Z,99.90
2023-04-03T03:10:48.978Z,99.90
2023-04-03T03:13:16.809Z,99.90
2023-04-03T03:15:46.048Z,99.90
2023-04-03T03:18:13.903Z,99.90
2023-04-03T03:20:41.703Z,99.90
2023-04-03T03:23:09.521Z,99.90
2023-04-03T03:25:40.336Z,99.90
2023-04-03T03:28:08.394Z,99.90
2023-04-03T03:30:36.512Z,99.90
2023-04-03T03:33:06.035Z,99.90
2023-04-03T03:35:34.162Z,99.90
2023-04-03T03:38:01.999Z,99.90
2023-04-03T03:40:29.801Z,99.90
2023-04-03T03:42:57.584Z,99.90
2023-04-03T03:45:26.100Z,99.90
2023-04-03T03:47:53.940Z,99.90
2023-04-03T03:50:23.147Z,99.90
2023-04-03T03:52:50.968Z,99.90
2023-04-03T03:55:18.904Z,99.90
2023-04-03T03:57:46.787Z,99.90
2023-04-03T04:00:15.403Z,99.90
2023-04-03T04:02:43.454Z,99.90
2023-04-03T04:05:11.359Z,99.90
2023-04-03T04:07:40.602Z,99.90
2023-04-03T04:10:09.504Z,99.90
2023-04-03T04:12:37.486Z,99.90
2023-04-03T04:15:06.041Z,99.90
2023-04-03T04:17:33.930Z,99.90
2023-04-03T04:20:01.767Z,99.90
2023-04-03T04:22:29.555Z,99.90
2023-04-03T04:24:58.761Z,99.90
2023-04-03T04:27:26.602Z,99.90
2023-04-03T04:29:54.372Z,99.90
2023-04-03T04:32:22.190Z,99.90
2023-04-03T04:34:50.030Z,99.90
2023-04-03T04:37:17.831Z,99.90
2023-04-03T04:39:45.644Z,99.90
2023-04-03T04:42:16.744Z,99.90
2023-04-03T04:44:45.841Z,99.90
2023-04-03T04:47:13.670Z,99.90
2023-04-03T04:49:41.589Z,99.90
2023-04-03T04:52:09.484Z,99.90
2023-04-03T04:54:37.284Z,99.90
2023-04-03T04:57:05.467Z,99.90
2023-04-03T04:59:34.712Z,99.90
2023-04-03T05:02:02.599Z,99.90
2023-04-03T05:04:30.595Z,99.90
2023-04-03T05:06:58.414Z,99.90
2023-04-03T05:09:26.663Z,99.90
2023-04-03T05:11:54.486Z,99.90
2023-04-03T05:14:22.335Z,99.90
2023-04-03T05:16:53.681Z,99.90
2023-04-03T05:19:21.996Z,99.90
2023-04-03T05:21:50.220Z,99.90
2023-04-03T05:24:18.158Z,99.90
2023-04-03T05:26:46.310Z,99.90
2023-04-03T05:29:14.262Z,99.90
2023-04-03T05:31:42.113Z,99.90
2023-04-03T05:34:11.364Z,99.90
2023-04-03T05:36:39.282Z,99.90
2023-04-03T05:39:07.138Z,99.90
2023-04-03T05:41:34.929Z,99.90
2023-04-03T05:44:02.722Z,99.90
2023-04-03T05:46:30.874Z,99.90
2023-04-03T05:48:58.776Z,99.90
2023-04-03T05:51:31.298Z,99.90
2023-04-03T05:54:04.709Z,99.90
2023-04-03T05:56:32.480Z,99.90
2023-04-03T05:59:00.386Z,99.90
2023-04-03T06:01:28.178Z,99.90
2023-04-03T06:03:56.854Z,99.90
2023-04-03T06:06:24.732Z,99.90
2023-04-03T06:08:54.072Z,99.90
2023-04-03T06:11:22.550Z,99.90
2023-04-03T06:13:50.368Z,99.90
2023-04-03T06:16:20.409Z,99.90
2023-04-03T06:18:48.188Z,99.90
2023-04-03T06:21:16.008Z,99.90
2023-04-03T06:23:43.820Z,99.90
2023-04-03T06:26:12.932Z,99.90
2023-04-03T06:28:40.739Z,99.90
2023-04-03T06:31:08.528Z,99.90
2023-04-03T06:33:36.663Z,99.90
2023-04-03T06:36:07.471Z,99.90
2023-04-03T06:38:35.891Z,99.90
2023-04-03T06:41:03.700Z,99.90
2023-04-03T06:43:34.506Z,99.90
2023-04-03T06:46:02.872Z,99.90
2023-04-03T06:48:30.834Z,99.90
2023-04-03T06:50:58.691Z,99.90
2023-04-03T06:53:27.136Z,99.90
2023-04-03T06:55:54.887Z,99.90
2023-04-03T06:58:23.322Z,99.90
2023-04-03T07:00:52.484Z,99.90
2023-04-03T07:03:20.262Z,99.90
2023-04-03T07:05:48.001Z,99.90
2023-04-03T07:08:15.737Z,99.90
2023-04-03T07:10:43.714Z,99.90
2023-04-03T07:13:11.902Z,99.90
2023-04-03T07:15:39.953Z,99.90
2023-04-03T07:18:09.376Z,99.90
2023-04-03T07:20:37.351Z,99.90
2023-04-03T07:23:05.171Z,99.90
2023-04-03T07:25:34.634Z,99.90
2023-04-03T07:28:02.821Z,99.90
2023-04-03T07:30:30.601Z,99.90
2023-04-03T07:32:58.442Z,99.90
2023-04-03T07:35:27.574Z,99.90
2023-04-03T07:37:55.346Z,99.90
2023-04-03T07:40:23.153Z,99.90
2023-04-03T07:42:51.177Z,99.90
2023-04-03T07:45:20.000Z,99.90
2023-04-03T07:47:48.893Z,99.90
2023-04-03T07:50:17.197Z,99.90
2023-04-03T07:52:47.187Z,99.90
2023-04-03T07:55:15.059Z,99.90
2023-04-03T07:57:43.457Z,99.90
2023-04-03T08:00:13.143Z,99.90
2023-04-03T08:02:41.009Z,99.90
2023-04-03T08:05:09.648Z,99.90
2023-04-03T08:07:38.872Z,99.90
2023-04-03T08:10:09.074Z,99.90
2023-04-03T08:12:37.785Z,99.90
2023-04-03T08:15:07.323Z,99.90
2023-04-03T08:17:35.689Z,99.90
2023-04-03T08:20:03.530Z,99.90
2023-04-03T08:22:31.982Z,99.90
2023-04-03T08:24:59.915Z,99.90
2023-04-03T08:27:29.508Z,99.90
2023-04-03T08:29:57.848Z,99.90
2023-04-03T08:32:25.756Z,99.90
2023-04-03T08:34:53.570Z,99.90
2023-04-03T08:37:21.458Z,99.90
2023-04-03T08:39:49.578Z,99.90
2023-04-03T08:42:26.542Z,99.90
2023-04-03T08:45:01.113Z,99.90
2023-04-03T08:47:38.589Z,99.90
2023-04-03T08:50:10.772Z,99.90
2023-04-03T08:52:42.975Z,99.90
2023-04-03T08:55:21.893Z,99.90
2023-04-03T08:57:51.370Z,99.90
2023-04-03T09:00:24.583Z,99.90
2023-04-03T09:02:54.541Z,99.90
2023-04-03T09:05:31.076Z,99.90
2023-04-03T09:08:02.468Z,99.90
2023-04-03T09:10:34.993Z,99.90
2023-04-03T09:13:08.117Z,99.90
2023-04-03T09:15:39.363Z,99.90
2023-04-03T09:18:16.784Z,99.90
2023-04-03T09:20:49.242Z,99.90
2023-04-03T09:23:24.937Z,99.90
2023-04-03T09:25:55.502Z,99.90
2023-04-03T09:28:23.315Z,99.90
2023-04-03T09:30:52.434Z,99.90
2023-04-03T09:33:21.441Z,99.90
2023-04-03T09:35:50.718Z,99.90
2023-04-03T09:38:22.038Z,99.90
2023-04-03T09:40:52.414Z,98.70
2023-04-03T09:43:32.035Z,97.00
2023-04-03T09:46:21.059Z,98.40
2023-04-03T09:49:08.263Z,95.60
2023-04-03T09:51:38.400Z,95.70
2023-04-03T09:54:28.136Z,97.30
2023-04-03T09:56:57.570Z,96.10
2023-04-03T09:59:25.826Z,93.30
2023-04-03T10:02:02.923Z,93.30
2023-04-03T10:04:41.979Z,92.80
2023-04-03T10:07:30.851Z,95.00
2023-04-03T10:09:59.919Z,94.70
2023-04-03T10:12:27.852Z,94.10
2023-04-03T10:15:00.047Z,94.90
2023-04-03T10:17:40.175Z,95.30
2023-04-03T10:20:24.367Z,96.40
2023-04-03T10:23:03.551Z,96.60
2023-04-03T10:25:42.049Z,95.40
2023-04-03T10:28:14.713Z,97.00
2023-04-03T10:30:50.865Z,95.30
2023-04-03T10:33:49.487Z,96.00
2023-04-03T10:36:29.074Z,95.50
2023-04-03T10:39:04.332Z,96.30
2023-04-03T10:41:41.411Z,95.70
2023-04-03T10:44:18.034Z,96.60
2023-04-03T10:46:49.720Z,95.90
2023-04-03T10:49:35.055Z,96.40
2023-04-03T10:52:12.520Z,97.00
2023-04-03T10:54:42.817Z,97.30
2023-04-03T10:57:13.890Z,97.00
2023-04-03T10:59:45.784Z,97.10
2023-04-03T11:02:21.587Z,96.90
2023-04-03T11:04:55.648Z,97.30
2023-04-03T11:07:27.460Z,97.30
2023-04-03T11:09:59.904Z,97.70
2023-04-03T11:12:32.763Z,98.40
2023-04-03T11:15:03.422Z,98.20
2023-04-03T11:17:38.117Z,97.10
2023-04-03T11:20:16.501Z,98.60
2023-04-03T11:22:47.333Z,98.00
2023-04-03T11:25:23.220Z,97.80
2023-04-03T11:27:57.043Z,97.70
2023-04-03T11:30:29.085Z,98.10
2023-04-03T11:33:10.372Z,97.80
2023-04-03T11:35:44.564Z,97.90
2023-04-03T11:38:21.377Z,98.30
2023-04-03T11:40:49.933Z,98.10
2023-04-03T11:43:26.626Z,98.10
2023-04-03T11:45:59.574Z,97.60
2023-04-03T11:48:50.894Z,98.00
2023-04-03T11:51:42.518Z,98.40
2023-04-03T11:54:44.515Z,98.40
2023-04-03T11:57:47.706Z,98.30
2023-04-03T12:00:54.065Z,98.40
2023-04-03T12:03:38.171Z,97.90
2023-04-03T12:06:53.545Z,97.60
2023-04-03T12:09:37.096Z,97.60
2023-04-03T12:12:29.646Z,98.00
2023-04-03T12:14:57.763Z,98.10
2023-04-03T12:17:30.331Z,98.50
2023-04-03T12:19:58.221Z,97.90
2023-04-03T12:22:27.376Z,98.00
2023-04-03T12:24:55.515Z,98.10
2023-04-03T12:27:30.763Z,98.20
2023-04-03T12:30:06.145Z,97.80
2023-04-03T12:33:05.759Z,98.00
2023-04-03T12:35:42.174Z,97.80
2023-04-03T12:38:39.830Z,97.20
2023-04-03T12:41:30.134Z,97.40
2023-04-03T12:44:10.307Z,98.40
2023-04-03T12:46:41.623Z,98.10
2023-04-03T12:49:35.064Z,97.20
2023-04-03T12:52:06.989Z,97.20
2023-04-03T12:54:40.664Z,96.20
2023-04-03T12:57:13.971Z,97.50
2023-04-03T12:59:42.262Z,97.50
2023-04-03T13:02:25.692Z,98.00
2023-04-03T13:04:55.058Z,98.00
2023-04-03T13:07:31.671Z,97.00
2023-04-03T13:10:15.547Z,97.10
2023-04-03T13:12:49.359Z,97.10
2023-04-03T13:15:20.463Z,97.60
2023-04-03T13:17:50.965Z,97.70
2023-04-03T13:20:23.572Z,97.20
2023-04-03T13:22:55.230Z,97.30
2023-04-03T13:25:28.513Z,97.10
2023-04-03T13:28:10.049Z,97.00
2023-04-03T13:30:42.300Z,96.40
2023-04-03T13:33:23.640Z,96.50
2023-04-03T13:35:57.791Z,97.30
2023-04-03T13:38:28.473Z,96.90
2023-04-03T13:41:01.514Z,97.20
2023-04-03T13:43:30.822Z,96.90
2023-04-03T13:46:05.880Z,96.90
2023-04-03T13:48:42.441Z,97.20
2023-04-03T13:51:22.572Z,96.70
2023-04-03T13:53:54.347Z,97.10
2023-04-03T13:56:32.482Z,97.90
2023-04-03T13:59:05.932Z,97.30
2023-04-03T14:01:54.866Z,96.70
2023-04-03T14:04:26.562Z,96.60
2023-04-03T14:06:54.928Z,96.00
2023-04-03T14:09:25.097Z,96.90
2023-04-03T14:11:56.001Z,96.20
2023-04-03T14:14:29.742Z,96.40
2023-04-03T14:17:00.750Z,96.00
2023-04-03T14:19:30.637Z,96.70
2023-04-03T14:21:59.431Z,96.30
2023-04-03T14:24:28.222Z,95.90
2023-04-03T14:26:57.577Z,95.90
2023-04-03T14:29:26.000Z,96.20
2023-04-03T14:32:03.965Z,96.40
2023-04-03T14:34:39.869Z,95.80
2023-04-03T14:37:11.081Z,96.80
2023-04-03T14:39:38.964Z,95.80
2023-04-03T14:42:08.389Z,95.50
2023-04-03T14:44:36.217Z,95.60
2023-04-03T14:47:04.470Z,95.60
2023-04-03T14:49:32.867Z,95.80
2023-04-03T14:52:00.962Z,96.80
2023-04-03T14:54:30.101Z,95.20
2023-04-03T14:57:00.552Z,95.80
2023-04-03T14:59:30.974Z,95.80
2023-04-03T15:01:58.767Z,95.60
2023-04-03T15:04:27.241Z,95.30
2023-04-03T15:06:55.250Z,96.20
2023-04-03T15:09:25.444Z,95.30
2023-04-03T15:11:56.314Z,96.20
2023-04-03T15:14:36.192Z,95.00
2023-04-03T15:17:06.739Z,95.20
2023-04-03T15:19:39.618Z,95.40
2023-04-03T15:22:07.651Z,95.70
2023-04-03T15:24:35.533Z,94.70
2023-04-03T15:27:03.726Z,95.00
2023-04-03T15:29:31.602Z,95.60
2023-04-03T15:31:59.430Z,94.70
2023-04-03T15:34:29.724Z,94.80
2023-04-03T15:36:57.489Z,95.60
2023-04-03T15:39:27.256Z,94.90
2023-04-03T15:41:56.046Z,94.70
2023-04-03T15:44:23.906Z,94.10
2023-04-03T15:46:52.413Z,94.30
2023-04-03T15:49:20.940Z,94.90
2023-04-03T15:51:50.173Z,94.30
2023-04-03T15:54:18.345Z,94.70
2023-04-03T15:56:46.593Z,94.60
2023-04-03T15:59:14.400Z,94.60
2023-04-03T16:01:42.353Z,94.10
2023-04-03T16:04:11.094Z,94.90
2023-04-03T16:06:39.844Z,94.60
2023-04-03T16:09:09.568Z,93.60
2023-04-03T16:11:40.129Z,93.80
2023-04-03T16:14:08.550Z,94.10
2023-04-03T16:16:37.684Z,94.10
2023-04-03T16:19:06.375Z,94.40
2023-04-03T16:21:34.909Z,93.90
2023-04-03T16:24:03.558Z,92.70
2023-04-03T16:26:33.412Z,93.00
2023-04-03T16:29:01.238Z,92.80
2023-04-03T16:31:29.475Z,93.00
2023-04-03T16:33:58.266Z,93.30
2023-04-03T16:36:26.614Z,92.90
2023-04-03T16:38:54.559Z,92.80
2023-04-03T16:41:22.358Z,93.40
2023-04-03T16:43:52.010Z,93.30
2023-04-03T16:46:20.044Z,93.10
2023-04-03T16:48:47.959Z,93.60
2023-04-03T16:51:15.964Z,92.90
2023-04-03T16:53:43.960Z,94.00
2023-04-03T16:56:11.792Z,93.20
2023-04-03T16:58:39.624Z,93.10
2023-04-03T17:01:13.948Z,92.80
2023-04-03T17:03:41.829Z,94.50
2023-04-03T17:06:15.596Z,94.10
2023-04-03T17:08:43.791Z,93.60
2023-04-03T17:11:12.422Z,93.50
2023-04-03T17:13:40.325Z,93.60
2023-04-03T17:16:11.401Z,93.80
2023-04-03T17:18:41.491Z,93.70
2023-04-03T17:21:09.705Z,94.20
2023-04-03T17:23:39.516Z,94.30
2023-04-03T17:26:07.440Z,93.80
2023-04-03T17:28:35.335Z,94.30
2023-04-03T17:31:03.923Z,94.40
2023-04-03T17:33:32.244Z,94.30
2023-04-03T17:36:04.277Z,94.40
2023-04-03T17:38:33.330Z,94.20
2023-04-03T17:41:03.064Z,94.60
2023-04-03T17:43:31.064Z,94.60
2023-04-03T17:46:04.118Z,94.20
2023-04-03T17:48:32.951Z,95.00
2023-04-03T17:51:05.754Z,95.00
2023-04-03T17:53:33.555Z,93.80
2023-04-03T17:56:07.491Z,93.90
2023-04-03T17:58:35.859Z,94.50
2023-04-03T18:01:10.786Z,94.50
2023-04-03T18:03:38.725Z,95.00
2023-04-03T18:06:11.456Z,95.30
2023-04-03T18:08:41.805Z,95.40
2023-04-03T18:11:10.290Z,95.30
2023-04-03T18:13:38.596Z,94.20
2023-04-03T18:16:08.256Z,94.70
2023-04-03T18:18:36.273Z,95.00
2023-04-03T18:21:04.586Z,95.30
2023-04-03T18:23:36.070Z,94.50
2023-04-03T18:26:04.959Z,94.30
2023-04-03T18:28:33.169Z,94.20
2023-04-03T18:31:02.574Z,94.00
2023-04-03T18:33:30.495Z,94.40
2023-04-03T18:35:58.303Z,94.00
2023-04-03T18:38:26.155Z,94.00
2023-04-03T18:40:55.989Z,94.20
2023-04-03T18:43:24.615Z,95.50
2023-04-03T18:45:52.417Z,94.60
2023-04-03T18:48:21.264Z,94.20
2023-04-03T18:50:49.503Z,94.40
2023-04-03T18:53:17.428Z,95.10
2023-04-03T18:55:46.709Z,95.00
2023-04-03T18:58:15.960Z,96.30
2023-04-03T19:00:43.939Z,95.80
2023-04-03T19:03:12.729Z,96.00
2023-04-03T19:05:41.000Z,97.00
2023-04-03T19:08:09.148Z,97.60
2023-04-03T19:10:36.920Z,97.00
2023-04-03T19:13:04.743Z,96.60
2023-04-03T19:15:34.082Z,97.00
2023-04-03T19:18:01.972Z,96.50
2023-04-03T19:20:30.110Z,96.20
2023-04-03T19:22:57.952Z,96.30
2023-04-03T19:25:26.032Z,96.90
2023-04-03T19:27:53.970Z,96.90
2023-04-03T19:30:22.097Z,97.40
2023-04-03T19:32:51.562Z,97.50
2023-04-03T19:35:19.682Z,98.90
2023-04-03T19:37:50.763Z,99.60
2023-04-03T19:40:19.001Z,98.40
2023-04-03T19:42:46.991Z,98.30
2023-04-03T19:45:18.025Z,98.70
2023-04-03T19:47:47.131Z,99.30
2023-04-03T19:50:16.426Z,99.10
2023-04-03T19:52:44.688Z,99.30
2023-04-03T19:55:12.521Z,99.70
2023-04-03T19:57:40.870Z,99.90
2023-04-03T20:00:09.915Z,99.90
2023-04-03T20:02:37.825Z,99.90
2023-04-03T20:05:06.319Z,99.90
2023-04-03T20:07:35.671Z,99.90
2023-04-03T20:10:03.484Z,99.90
2023-04-03T20:12:31.325Z,99.90
2023-04-03T20:15:01.157Z,99.90
2023-04-03T20:17:28.976Z,99.90
2023-04-03T20:20:01.186Z,99.90
2023-04-03T20:22:29.052Z,99.90
2023-04-03T20:25:05.177Z,99.90
2023-04-03T20:27:34.633Z,99.90
2023-04-03T20:30:03.942Z,99.90
2023-04-03T20:32:33.590Z,99.90
2023-04-03T20:35:04.582Z,99.90
2023-04-03T20:37:32.945Z,99.90
2023-04-03T20:40:02.870Z,99.90
2023-04-03T20:42:30.783Z,99.90
2023-04-03T20:44:59.240Z,99.90
2023-04-03T20:47:27.933Z,99.90
2023-04-03T20:49:56.493Z,99.90
2023-04-03T20:52:24.306Z,99.90
2023-04-03T20:54:53.533Z,99.90
2023-04-03T20:57:22.745Z,99.90
2023-04-03T20:59:53.036Z,99.90
2023-04-03T21:02:21.161Z,99.90
2023-04-03T21:04:52.905Z,99.90
2023-04-03T21:07:58.564Z,99.90
2023-04-03T21:11:04.288Z,99.90
2023-04-03T21:14:09.669Z,99.90
2023-04-03T21:16:38.509Z,99.90
2023-04-03T21:19:15.581Z,99.90
2023-04-03T21:21:45.572Z,99.90
2023-04-03T21:24:16.651Z,99.90
2023-04-03T21:26:45.966Z,99.90
2023-04-03T21:29:13.976Z,99.90
2023-04-03T21:31:52.562Z,99.90
2023-04-03T21:34:23.439Z,99.90
2023-04-03T21:36:52.978Z,99.90
2023-04-03T21:39:21.540Z,99.90
2023-04-03T21:41:50.458Z,99.90
2023-04-03T21:44:18.476Z,99.90
2023-04-03T21:46:47.655Z,99.90
2023-04-03T21:49:16.172Z,99.90
2023-04-03T21:51:45.329Z,99.90
2023-04-03T21:54:13.176Z,99.90
2023-04-03T21:56:40.947Z,99.90
2023-04-03T21:59:08.858Z,99.90
2023-04-03T22:01:37.079Z,99.90
2023-04-03T22:04:05.091Z,99.90
2023-04-03T22:06:32.883Z,99.90
2023-04-03T22:09:02.245Z,99.90
2023-04-03T22:11:30.329Z,99.90
2023-04-03T22:13:58.200Z,99.90
2023-04-03T22:16:26.494Z,99.90
2023-04-03T22:18:54.933Z,99.90
2023-04-03T22:21:23.243Z,99.90
2023-04-03T22:23:52.536Z,99.90
2023-04-03T22:26:22.531Z,99.90
2023-04-03T22:28:50.380Z,99.90
2023-04-03T22:31:18.619Z,99.90
2023-04-03T22:33:46.584Z,99.90
2023-04-03T22:36:15.478Z,99.90
2023-04-03T22:38:44.025Z,99.90
2023-04-03T22:41:12.073Z,99.90
2023-04-03T22:43:41.448Z,99.90
2023-04-03T22:46:10.548Z,99.90
2023-04-03T22:48:38.724Z,99.90
2023-04-03T22:51:08.332Z,99.90
2023-04-03T22:53:36.481Z,99.90
2023-04-03T22:56:08.507Z,99.90
2023-04-03T22:58:36.826Z,99.90
2023-04-03T23:01:08.002Z,99.90
2023-04-03T23:03:36.494Z,99.90
2023-04-03T23:06:04.612Z,99.90
2023-04-03T23:08:34.387Z,99.90
2023-04-03T23:11:02.663Z,99.90
2023-04-03T23:13:30.846Z,99.90
2023-04-03T23:16:00.108Z,99.90
2023-04-03T23:18:31.268Z,99.90
2023-04-03T23:21:00.689Z,99.90
2023-04-03T23:23:28.481Z,99.90
2023-04-03T23:25:58.646Z,99.90
2023-04-03T23:28:27.144Z,99.90
2023-04-03T23:30:59.200Z,99.90
2023-04-03T23:33:27.034Z,99.90
2023-04-03T23:35:56.291Z,99.90
2023-04-03T23:38:24.118Z,99.90
2023-04-03T23:40:52.123Z,99.90
2023-04-03T23:43:19.972Z,99.90
2023-04-03T23:45:47.876Z,99.90
2023-04-03T23:48:15.808Z,99.90
2023-04-03T23:50:44.805Z,99.90
2023-04-03T23:53:13.956Z,99.90
2023-04-03T23:55:42.188Z,99.90
2023-04-03T23:58:10.651Z,99.90
